createdAt,value
2023-04-15T00:01:41.964Z,6.32
2023-04-15T00:04:48.150Z,6.30
2023-04-15T00:07:50.114Z,6.43
2023-04-15T00:10:52.052Z,6.58
2023-04-15T00:13:54.573Z,6.59
2023-04-15T00:16:57.466Z,6.66
2023-04-15T00:20:00.050Z,6.72
2023-04-15T00:23:04.397Z,6.80
2023-04-15T00:26:06.374Z,6.87
2023-04-15T00:29:08.327Z,6.90
2023-04-15T00:32:11.452Z,6.98
2023-04-15T00:35:16.612Z,6.96
2023-04-15T00:38:18.658Z,7.03
2023-04-15T00:41:21.007Z,6.88
2023-04-15T00:44:23.182Z,6.90
2023-04-15T00:47:26.490Z,6.81
2023-04-15T00:50:28.447Z,6.85
2023-04-15T00:53:30.622Z,6.81
2023-04-15T00:56:36.069Z,6.90
2023-04-15T00:59:38.342Z,6.87
2023-04-15T01:02:40.521Z,6.91
2023-04-15T01:05:42.914Z,6.85
2023-04-15T01:08:48.507Z,6.88
2023-04-15T01:11:51.806Z,6.90
2023-04-15T01:14:55.197Z,6.93
2023-04-15T01:18:00.027Z,6.99
2023-04-15T01:21:05.100Z,6.83
2023-04-15T01:24:11.089Z,6.99
2023-04-15T01:27:12.943Z,6.87
2023-04-15T01:30:15.692Z,6.94
2023-04-15T01:33:17.669Z,6.92
2023-04-15T01:36:21.281Z,6.88
2023-04-15T01:39:23.532Z,6.91
2023-04-15T01:42:26.465Z,6.84
2023-04-15T01:45:28.821Z,6.92
2023-04-15T01:48:31.321Z,7.13
2023-04-15T01:51:33.244Z,7.39
2023-04-15T01:54:35.181Z,7.49
2023-04-15T01:57:37.195Z,7.21
2023-04-15T02:00:39.174Z,6.99
2023-04-15T02:03:41.086Z,7.17
2023-04-15T02:06:44.091Z,7.17
2023-04-15T02:09:47.708Z,6.97
2023-04-15T02:12:49.753Z,7.01
2023-04-15T02:15:52.800Z,7.16
2023-04-15T02:18:55.876Z,7.06
2023-04-15T02:21:57.785Z,7.23
2023-04-15T02:24:59.624Z,7.38
2023-04-15T02:28:01.480Z,7.40
2023-04-15T02:31:07.291Z,7.37
2023-04-15T02:34:09.228Z,7.34
2023-04-15T02:37:12.647Z,7.33
2023-04-15T02:40:14.637Z,7.29
2023-04-15T02:43:19.913Z,7.28
2023-04-15T02:46:23.024Z,7.06
2023-04-15T02:49:26.230Z,6.98
2023-04-15T02:52:28.150Z,6.85
2023-04-15T02:55:30.133Z,6.94
2023-04-15T02:58:32.132Z,6.90
2023-04-15T03:01:34.098Z,6.95
2023-04-15T03:04:36.021Z,6.95
2023-04-15T03:07:40.452Z,6.86
2023-04-15T03:10:42.773Z,6.65
2023-04-15T03:13:44.900Z,6.57
2023-04-15T03:16:59.708Z,6.51
2023-04-15T03:20:05.048Z,6.72
2023-04-15T03:23:07.475Z,6.71
2023-04-15T03:26:09.457Z,6.83
2023-04-15T03:29:11.704Z,6.75
2023-04-15T03:32:15.610Z,6.75
2023-04-15T03:35:18.423Z,6.68
2023-04-15T03:38:20.690Z,6.72
2023-04-15T03:41:22.703Z,6.75
2023-04-15T03:44:24.579Z,7.00
2023-04-15T03:47:26.660Z,6.95
2023-04-15T03:50:28.647Z,6.93
2023-04-15T03:53:30.736Z,6.71
2023-04-15T03:56:32.603Z,6.72
2023-04-15T03:59:34.420Z,6.71
2023-04-15T04:02:36.848Z,6.73
2023-04-15T04:05:41.505Z,6.68
2023-04-15T04:08:43.699Z,6.66
2023-04-15T04:11:46.232Z,6.79
2023-04-15T04:14:48.476Z,6.63
2023-04-15T04:17:50.938Z,6.65
2023-04-15T04:20:53.055Z,6.57
2023-04-15T04:23:55.135Z,6.51
2023-04-15T04:26:57.366Z,6.52
2023-04-15T04:29:59.406Z,6.46
2023-04-15T04:33:01.505Z,6.47
2023-04-15T04:36:03.605Z,6.50
2023-04-15T04:39:05.443Z,6.43
2023-04-15T04:42:07.384Z,6.48
2023-04-15T04:45:09.552Z,6.32
2023-04-15T04:48:11.646Z,6.34
2023-04-15T04:51:13.724Z,6.43
2023-04-15T04:54:16.335Z,6.55
2023-04-15T04:57:18.146Z,6.61
2023-04-15T05:00:20.523Z,6.72
2023-04-15T05:03:22.586Z,6.77
2023-04-15T05:06:24.722Z,6.79
2023-04-15T05:09:26.716Z,6.81
2023-04-15T05:12:28.694Z,6.92
2023-04-15T05:15:30.630Z,7.09
2023-04-15T05:18:32.558Z,6.97
2023-04-15T05:21:34.449Z,7.08
2023-04-15T05:24:36.489Z,7.17
2023-04-15T05:27:38.408Z,7.13
2023-04-15T05:30:40.508Z,7.21
2023-04-15T05:33:42.946Z,7.20
2023-04-15T05:36:44.750Z,7.30
2023-04-15T05:39:47.051Z,7.37
2023-04-15T05:42:49.222Z,7.55
2023-04-15T05:45:51.277Z,7.69
2023-04-15T05:48:54.698Z,7.88
2023-04-15T05:51:57.954Z,7.82
2023-04-15T05:54:59.870Z,7.82
2023-04-15T05:58:01.909Z,7.78
2023-04-15T06:01:04.252Z,7.91
2023-04-15T06:04:06.841Z,7.81
2023-04-15T06:07:08.798Z,7.88
2023-04-15T06:10:11.027Z,7.85
2023-04-15T06:13:13.198Z,7.86
2023-04-15T06:16:15.119Z,7.87
2023-04-15T06:19:17.050Z,7.97
2023-04-15T06:22:18.951Z,8.08
2023-04-15T06:25:20.852Z,8.04
2023-04-15T06:28:22.780Z,8.28
2023-04-15T06:31:24.750Z,8.49
2023-04-15T06:34:27.477Z,9.06
2023-04-15T06:37:29.460Z,9.45
2023-04-15T06:40:31.661Z,9.41
2023-04-15T06:43:33.667Z,9.33
2023-04-15T06:46:35.480Z,9.41
2023-04-15T06:49:37.734Z,9.34
2023-04-15T06:52:39.722Z,9.21
2023-04-15T06:55:42.117Z,9.03
2023-04-15T06:58:44.346Z,9.10
2023-04-15T07:01:46.578Z,9.06
2023-04-15T07:04:48.981Z,9.37
2023-04-15T07:07:51.391Z,9.44
2023-04-15T07:10:54.192Z,9.30
2023-04-15T07:13:57.754Z,9.43
2023-04-15T07:17:00.732Z,9.44
2023-04-15T07:20:04.998Z,9.83
2023-04-15T07:23:07.108Z,10.37
2023-04-15T07:26:09.178Z,10.48
2023-04-15T07:29:12.003Z,10.47
2023-04-15T07:32:13.964Z,10.82
2023-04-15T07:35:16.252Z,10.75
2023-04-15T07:38:18.088Z,10.50
2023-04-15T07:41:21.083Z,10.97
2023-04-15T07:44:23.254Z,10.89
2023-04-15T07:47:25.859Z,10.83
2023-04-15T07:50:28.795Z,10.89
2023-04-15T07:53:30.703Z,10.82
2023-04-15T07:56:32.718Z,10.65
2023-04-15T07:59:34.724Z,10.64
2023-04-15T08:02:39.063Z,10.60
2023-04-15T08:05:42.623Z,10.44
2023-04-15T08:08:44.565Z,10.50
2023-04-15T08:11:49.090Z,10.31
2023-04-15T08:14:51.380Z,10.30
2023-04-15T08:17:53.341Z,10.25
2023-04-15T08:20:55.392Z,10.37
2023-04-15T08:23:57.468Z,10.39
2023-04-15T08:26:59.979Z,10.31
2023-04-15T08:30:04.685Z,10.25
2023-04-15T08:33:07.066Z,10.50
2023-04-15T08:36:09.362Z,10.96
2023-04-15T08:39:11.375Z,10.93
2023-04-15T08:42:17.447Z,11.13
2023-04-15T08:45:20.194Z,10.72
2023-04-15T08:48:24.566Z,11.31
2023-04-15T08:51:27.721Z,11.79
2023-04-15T08:54:30.613Z,11.44
2023-04-15T08:57:33.532Z,11.54
2023-04-15T09:00:36.109Z,11.61
2023-04-15T09:03:38.637Z,11.94
2023-04-15T09:06:41.470Z,12.05
2023-04-15T09:09:43.516Z,11.93
2023-04-15T09:12:45.501Z,12.26
2023-04-15T09:15:48.477Z,12.23
2023-04-15T09:18:51.473Z,12.47
2023-04-15T09:21:57.256Z,12.60
2023-04-15T09:25:01.487Z,12.83
2023-04-15T09:28:03.496Z,13.10
2023-04-15T09:31:05.493Z,13.23
2023-04-15T09:34:07.559Z,13.08
2023-04-15T09:37:10.982Z,13.20
2023-04-15T09:40:13.319Z,13.45
2023-04-15T09:43:16.776Z,13.31
2023-04-15T09:46:19.124Z,13.14
2023-04-15T09:49:21.202Z,13.00
2023-04-15T09:52:23.742Z,13.83
2023-04-15T09:55:25.598Z,13.50
2023-04-15T09:58:33.378Z,13.17
2023-04-15T10:01:36.798Z,13.88
2023-04-15T10:04:41.800Z,14.16
2023-04-15T10:07:44.321Z,14.01
2023-04-15T10:10:48.084Z,14.11
2023-04-15T10:13:51.193Z,14.46
2023-04-15T10:16:56.520Z,14.74
2023-04-15T10:20:01.013Z,14.68
2023-04-15T10:23:03.599Z,14.28
2023-04-15T10:26:06.200Z,14.48
2023-04-15T10:29:09.665Z,14.84
2023-04-15T10:32:12.162Z,14.93
2023-04-15T10:35:14.444Z,14.90
2023-04-15T10:38:38.999Z,14.54
2023-04-15T10:41:40.929Z,15.02
2023-04-15T10:44:51.934Z,15.41
2023-04-15T10:47:58.141Z,14.81
2023-04-15T10:51:05.163Z,15.13
2023-04-15T10:54:13.913Z,16.11
2023-04-15T10:57:23.790Z,15.72
2023-04-15T11:00:28.950Z,15.37
2023-04-15T11:03:43.293Z,15.17
2023-04-15T11:06:45.907Z,14.72
2023-04-15T11:09:47.863Z,14.99
2023-04-15T11:12:52.945Z,15.09
2023-04-15T11:15:58.411Z,14.81
2023-04-15T11:19:01.719Z,14.23
2023-04-15T11:22:10.804Z,14.22
2023-04-15T11:25:25.327Z,14.03
2023-04-15T11:28:31.943Z,14.03
2023-04-15T11:31:34.211Z,12.85
2023-04-15T11:34:36.465Z,12.60
2023-04-15T11:37:38.356Z,12.43
2023-04-15T11:40:41.791Z,12.42
2023-04-15T11:43:45.110Z,12.20
2023-04-15T11:46:47.055Z,12.22
2023-04-15T11:49:48.995Z,12.28
2023-04-15T11:52:57.186Z,12.21
2023-04-15T11:55:59.132Z,12.18
2023-04-15T11:59:01.219Z,12.35
2023-04-15T12:02:12.987Z,12.25
2023-04-15T12:05:14.988Z,12.21
2023-04-15T12:08:17.027Z,12.13
2023-04-15T12:11:20.475Z,12.04
2023-04-15T12:14:25.328Z,12.12
2023-04-15T12:17:28.154Z,12.25
2023-04-15T12:20:31.386Z,12.39
2023-04-15T12:23:38.533Z,12.31
2023-04-15T12:26:44.254Z,12.61
2023-04-15T12:29:46.238Z,12.83
2023-04-15T12:32:48.725Z,13.49
2023-04-15T12:35:50.791Z,13.79
2023-04-15T12:38:53.066Z,13.88
2023-04-15T12:41:55.700Z,14.11
2023-04-15T12:44:57.574Z,13.77
2023-04-15T12:47:59.522Z,14.13
2023-04-15T12:51:02.225Z,13.91
2023-04-15T12:54:05.789Z,14.31
2023-04-15T12:57:08.230Z,14.39
2023-04-15T13:00:10.854Z,14.29
2023-04-15T13:03:12.951Z,14.40
2023-04-15T13:06:14.932Z,14.59
2023-04-15T13:09:16.950Z,14.55
2023-04-15T13:12:18.855Z,14.28
2023-04-15T13:15:22.613Z,13.69
2023-04-15T13:18:24.745Z,13.50
2023-04-15T13:21:27.362Z,12.96
2023-04-15T13:24:29.342Z,12.91
2023-04-15T13:27:31.603Z,12.61
2023-04-15T13:30:33.568Z,12.46
2023-04-15T13:33:35.426Z,12.14
2023-04-15T13:36:37.261Z,11.93
2023-04-15T13:39:39.194Z,11.66
2023-04-15T13:42:42.884Z,11.36
2023-04-15T13:45:46.613Z,10.64
2023-04-15T13:48:48.672Z,10.72
2023-04-15T13:51:51.346Z,11.05
2023-04-15T13:55:18.263Z,11.07
2023-04-15T13:58:15.515Z,10.97
2023-04-15T14:01:17.611Z,11.06
2023-04-15T14:04:19.881Z,11.25
2023-04-15T14:07:21.990Z,11.27
2023-04-15T14:10:23.921Z,11.60
2023-04-15T14:13:25.946Z,11.77
2023-04-15T14:16:28.113Z,11.80
2023-04-15T14:19:31.695Z,12.15
2023-04-15T14:22:33.620Z,12.38
2023-04-15T14:25:35.527Z,12.33
2023-04-15T14:28:39.132Z,12.68
2023-04-15T14:31:41.068Z,12.37
2023-04-15T14:34:43.724Z,12.47
2023-04-15T14:37:45.690Z,12.38
2023-04-15T14:40:48.116Z,11.88
2023-04-15T14:43:49.990Z,11.56
2023-04-15T14:46:52.325Z,11.03
2023-04-15T14:49:54.470Z,10.75
2023-04-15T14:52:56.624Z,10.64
2023-04-15T14:55:58.976Z,10.83
2023-04-15T14:59:01.257Z,10.73
2023-04-15T15:02:03.939Z,10.75
2023-04-15T15:05:06.432Z,10.97
2023-04-15T15:08:09.228Z,11.15
2023-04-15T15:11:11.156Z,11.59
2023-04-15T15:14:13.209Z,11.83
2023-04-15T15:17:15.504Z,11.73
2023-04-15T15:20:19.335Z,12.08
2023-04-15T15:23:21.381Z,12.13
2023-04-15T15:26:23.411Z,12.19
2023-04-15T15:29:25.723Z,12.25
2023-04-15T15:32:27.875Z,12.23
2023-04-15T15:35:29.848Z,12.03
2023-04-15T15:38:31.914Z,11.91
2023-04-15T15:41:34.502Z,11.82
2023-04-15T15:44:38.445Z,11.60
2023-04-15T15:47:41.442Z,11.64
2023-04-15T15:50:45.886Z,12.02
2023-04-15T15:53:48.013Z,12.11
2023-04-15T15:56:50.154Z,12.01
2023-04-15T16:00:04.762Z,11.89
2023-04-15T16:03:12.197Z,11.58
2023-04-15T16:06:14.230Z,11.67
2023-04-15T16:09:16.192Z,11.50
2023-04-15T16:12:18.168Z,11.14
2023-04-15T16:15:20.170Z,11.04
2023-04-15T16:18:22.291Z,11.05
2023-04-15T16:21:31.618Z,10.98
2023-04-15T16:24:34.923Z,11.02
2023-04-15T16:27:54.145Z,10.98
2023-04-15T16:30:59.423Z,10.65
2023-04-15T16:34:02.317Z,10.39
2023-04-15T16:37:04.578Z,10.46
2023-04-15T16:40:07.428Z,10.29
2023-04-15T16:43:11.393Z,10.09
2023-04-15T16:46:14.732Z,10.05
2023-04-15T16:49:16.673Z,9.96
2023-04-15T16:52:18.654Z,9.77
2023-04-15T16:55:20.992Z,9.66
2023-04-15T16:58:23.233Z,9.49
2023-04-15T17:01:25.437Z,9.41
2023-04-15T17:04:28.514Z,9.47
2023-04-15T17:07:30.621Z,9.69
2023-04-15T17:10:32.582Z,9.61
2023-04-15T17:13:34.735Z,9.51
2023-04-15T17:16:36.749Z,9.38
2023-04-15T17:19:39.495Z,9.31
2023-04-15T17:22:41.594Z,9.13
2023-04-15T17:25:43.615Z,9.04
2023-04-15T17:28:46.061Z,8.97
2023-04-15T17:31:48.086Z,8.94
2023-04-15T17:34:51.352Z,8.89
2023-04-15T17:37:53.690Z,8.91
2023-04-15T17:40:55.701Z,8.92
2023-04-15T17:43:57.656Z,8.88
2023-04-15T17:46:59.874Z,8.74
2023-04-15T17:50:02.218Z,8.71
2023-04-15T17:53:04.472Z,8.66
2023-04-15T17:56:06.775Z,8.75
2023-04-15T17:59:08.924Z,8.94
2023-04-15T18:02:11.728Z,8.96
2023-04-15T18:05:14.714Z,8.78
2023-04-15T18:08:17.222Z,8.74
2023-04-15T18:11:19.678Z,8.88
2023-04-15T18:14:33.524Z,8.69
2023-04-15T18:17:37.069Z,8.55
2023-04-15T18:20:39.223Z,8.51
2023-04-15T18:23:41.306Z,8.56
2023-04-15T18:26:43.419Z,8.65
2023-04-15T18:29:47.080Z,8.47
2023-04-15T18:32:49.596Z,8.38
2023-04-15T18:35:53.015Z,8.35
2023-04-15T18:38:54.992Z,8.40
2023-04-15T18:41:57.444Z,8.39
2023-04-15T18:44:59.603Z,8.34
2023-04-15T18:48:03.013Z,8.41
2023-04-15T18:51:04.946Z,8.44
2023-04-15T18:54:07.334Z,8.40
2023-04-15T18:57:09.446Z,8.42
2023-04-15T19:00:12.727Z,8.38
2023-04-15T19:03:14.992Z,8.31
2023-04-15T19:06:17.458Z,8.33
2023-04-15T19:09:19.656Z,8.32
2023-04-15T19:12:21.827Z,8.30
2023-04-15T19:15:23.929Z,8.31
2023-04-15T19:18:26.979Z,8.28
2023-04-15T19:21:30.582Z,8.27
2023-04-15T19:24:33.469Z,8.27
2023-04-15T19:27:35.659Z,8.27
2023-04-15T19:30:37.794Z,8.27
2023-04-15T19:33:39.684Z,8.29
2023-04-15T19:36:42.289Z,8.28
2023-04-15T19:39:44.680Z,8.31
2023-04-15T19:42:47.163Z,8.33
2023-04-15T19:45:52.401Z,8.32
2023-04-15T19:48:55.366Z,8.26
2023-04-15T19:51:57.793Z,8.25
2023-04-15T19:54:59.962Z,8.23
2023-04-15T19:58:01.875Z,8.24
2023-04-15T20:01:04.554Z,8.27
2023-04-15T20:04:07.040Z,8.34
2023-04-15T20:07:10.171Z,8.28
2023-04-15T20:10:13.314Z,8.27
2023-04-15T20:13:15.705Z,8.23
2023-04-15T20:16:17.788Z,8.16
2023-04-15T20:19:19.968Z,8.05
2023-04-15T20:22:21.973Z,8.05
2023-04-15T20:25:24.049Z,7.93
2023-04-15T20:28:27.549Z,7.98
2023-04-15T20:31:29.983Z,7.99
2023-04-15T20:34:32.347Z,7.93
2023-04-15T20:37:34.709Z,7.97
2023-04-15T20:40:36.908Z,7.87
2023-04-15T20:43:39.242Z,7.78
2023-04-15T20:46:41.179Z,7.77
2023-04-15T20:49:43.168Z,7.80
2023-04-15T20:52:45.652Z,7.76
2023-04-15T20:55:47.886Z,7.68
2023-04-15T20:58:49.781Z,7.64
2023-04-15T21:01:51.928Z,7.56
2023-04-15T21:04:53.848Z,7.53
2023-04-15T21:07:56.082Z,7.44
2023-04-15T21:10:58.047Z,7.39
2023-04-15T21:13:59.984Z,7.35
2023-04-15T21:17:11.143Z,7.35
2023-04-15T21:20:13.467Z,7.23
2023-04-15T21:23:15.449Z,7.27
2023-04-15T21:26:18.353Z,7.38
2023-04-15T21:29:20.551Z,7.40
2023-04-15T21:32:22.525Z,7.43
2023-04-15T21:35:24.439Z,7.33
2023-04-15T21:38:26.372Z,7.38
2023-04-15T21:41:28.317Z,7.53
2023-04-15T21:44:30.283Z,7.65
2023-04-15T21:47:32.209Z,7.76
2023-04-15T21:51:00.824Z,7.74
2023-04-15T21:54:02.903Z,7.73
2023-04-15T21:57:04.711Z,7.77
2023-04-15T22:00:08.509Z,7.73
2023-04-15T22:03:10.461Z,7.73
2023-04-15T22:06:13.818Z,7.68
2023-04-15T22:09:15.993Z,7.71
2023-04-15T22:12:18.004Z,7.72
2023-04-15T22:15:19.892Z,7.72
2023-04-15T22:18:23.183Z,7.74
2023-04-15T22:21:25.204Z,7.66
2023-04-15T22:24:34.403Z,7.66
2023-04-15T22:27:42.243Z,7.60
2023-04-15T22:30:44.202Z,7.57
2023-04-15T22:33:46.169Z,7.59
2023-04-15T22:36:49.022Z,7.61
2023-04-15T22:39:51.888Z,7.59
2023-04-15T22:42:53.786Z,7.60
2023-04-15T22:45:56.676Z,7.55
2023-04-15T22:48:58.738Z,7.54
2023-04-15T22:52:01.053Z,7.53
2023-04-15T22:55:03.726Z,7.49
2023-04-15T22:58:06.003Z,7.53
2023-04-15T23:01:08.398Z,7.47
2023-04-15T23:04:26.631Z,7.51
2023-04-15T23:07:29.926Z,7.57
2023-04-15T23:10:31.872Z,7.67
2023-04-15T23:13:35.370Z,7.78
2023-04-15T23:16:37.252Z,7.97
2023-04-15T23:19:39.355Z,8.04
2023-04-15T23:22:43.095Z,7.90
2023-04-15T23:25:45.135Z,7.82
2023-04-15T23:28:47.029Z,7.80
2023-04-15T23:31:49.367Z,7.86
2023-04-15T23:34:52.286Z,7.90
2023-04-15T23:37:54.423Z,7.96
2023-04-15T23:40:56.411Z,7.79
2023-04-15T23:43:58.365Z,7.60
2023-04-15T23:47:00.492Z,7.53
2023-04-15T23:50:02.449Z,7.50
2023-04-15T23:53:04.589Z,7.50
2023-04-15T23:56:06.757Z,7.75
2023-04-15T23:59:09.144Z,7.96
